createdAt,value
2018-05-14T00:02:26.831Z,6.07
2018-05-14T00:04:55.821Z,6.10
2018-05-14T00:07:24.809Z,6.13
2018-05-14T00:09:53.771Z,5.90
2018-05-14T00:12:22.740Z,6.17
2018-05-14T00:14:51.742Z,6.20
2018-05-14T00:17:21.611Z,6.17
2018-05-14T00:19:50.560Z,5.43
2018-05-14T00:22:19.536Z,5.47
2018-05-14T00:24:48.482Z,5.07
2018-05-14T00:27:17.436Z,5.63
2018-05-14T00:29:46.459Z,5.20
2018-05-14T00:32:15.434Z,5.33
2018-05-14T00:34:44.397Z,5.83
2018-05-14T00:37:13.359Z,5.10
2018-05-14T00:39:42.322Z,5.73
2018-05-14T00:42:11.343Z,5.50
2018-05-14T00:44:40.313Z,5.57
2018-05-14T00:47:09.289Z,4.97
2018-05-14T00:49:38.285Z,5.30
2018-05-14T00:52:07.274Z,5.40
2018-05-14T00:54:36.289Z,5.37
2018-05-14T00:57:05.270Z,5.50
2018-05-14T00:59:34.224Z,5.77
2018-05-14T01:02:03.186Z,5.93
2018-05-14T01:04:32.176Z,5.33
2018-05-14T01:07:01.193Z,5.10
2018-05-14T01:09:30.163Z,5.20
2018-05-14T01:11:59.142Z,5.03
2018-05-14T01:14:28.133Z,4.93
2018-05-14T01:16:57.089Z,5.50
2018-05-14T01:19:26.039Z,5.80
2018-05-14T01:21:55.000Z,5.03
2018-05-14T01:24:24.004Z,5.03
2018-05-14T01:26:52.963Z,5.90
2018-05-14T01:29:21.928Z,5.33
2018-05-14T01:31:50.986Z,5.43
2018-05-14T01:34:19.967Z,5.20
2018-05-14T01:36:48.982Z,5.20
2018-05-14T01:39:17.940Z,5.60
2018-05-14T01:41:46.906Z,5.87
2018-05-14T01:44:15.862Z,4.90
2018-05-14T01:46:44.823Z,5.40
2018-05-14T01:49:13.830Z,5.03
2018-05-14T01:51:42.886Z,5.30
2018-05-14T01:54:11.796Z,5.23
2018-05-14T01:56:40.752Z,5.70
2018-05-14T01:59:09.731Z,5.03
2018-05-14T02:01:38.748Z,5.47
2018-05-14T02:04:07.702Z,5.70
2018-05-14T02:06:36.663Z,4.80
2018-05-14T02:09:05.656Z,5.90
2018-05-14T02:11:34.612Z,5.33
2018-05-14T02:14:03.594Z,5.53
2018-05-14T02:16:32.612Z,5.30
2018-05-14T02:19:01.566Z,5.47
2018-05-14T02:21:30.547Z,5.07
2018-05-14T02:23:59.563Z,4.70
2018-05-14T02:26:28.528Z,5.10
2018-05-14T02:28:57.510Z,5.23
2018-05-14T02:31:26.472Z,5.13
2018-05-14T02:33:55.465Z,6.03
2018-05-14T02:36:24.493Z,5.43
2018-05-14T02:38:53.491Z,5.20
2018-05-14T02:41:22.468Z,5.50
2018-05-14T02:43:51.450Z,5.70
2018-05-14T02:46:20.534Z,6.23
2018-05-14T02:48:49.511Z,5.47
2018-05-14T02:51:18.462Z,6.47
2018-05-14T02:53:47.424Z,6.13
2018-05-14T02:56:16.389Z,6.33
2018-05-14T02:58:45.347Z,6.40
2018-05-14T03:01:14.361Z,6.33
2018-05-14T03:03:43.354Z,6.47
2018-05-14T03:06:12.354Z,7.07
2018-05-14T03:08:41.317Z,6.63
2018-05-14T03:11:10.289Z,5.80
2018-05-14T03:13:39.310Z,6.90
2018-05-14T03:16:08.262Z,6.57
2018-05-14T03:18:37.239Z,6.87
2018-05-14T03:21:06.219Z,6.77
2018-05-14T03:23:35.192Z,6.00
2018-05-14T03:26:04.207Z,6.77
2018-05-14T03:28:33.151Z,6.67
2018-05-14T03:31:02.151Z,6.67
2018-05-14T03:33:31.139Z,6.57
2018-05-14T03:36:00.120Z,7.13
2018-05-14T03:38:29.119Z,6.07
2018-05-14T03:40:58.074Z,6.90
2018-05-14T03:43:27.035Z,6.63
2018-05-14T03:45:55.985Z,6.57
2018-05-14T03:48:24.958Z,6.03
2018-05-14T03:50:53.970Z,6.10
2018-05-14T03:53:22.950Z,6.03
2018-05-14T03:55:51.918Z,6.30
2018-05-14T03:58:26.699Z,6.00
2018-05-14T04:01:01.511Z,6.60
2018-05-14T04:03:36.397Z,6.70
2018-05-14T04:06:11.268Z,5.80
2018-05-14T04:08:40.234Z,6.27
2018-05-14T04:11:09.196Z,6.20
2018-05-14T04:13:38.182Z,5.67
2018-05-14T04:16:07.160Z,6.67
2018-05-14T04:18:36.170Z,6.30
2018-05-14T04:21:05.134Z,6.23
2018-05-14T04:23:34.111Z,6.50
2018-05-14T04:26:03.112Z,6.57
2018-05-14T04:28:32.085Z,6.30
2018-05-14T04:31:01.092Z,7.07
2018-05-14T04:33:30.086Z,6.67
2018-05-14T04:35:59.046Z,6.87
2018-05-14T04:38:28.013Z,6.33
2018-05-14T04:40:57.032Z,6.43
2018-05-14T04:43:26.058Z,6.20
2018-05-14T04:45:55.048Z,6.00
2018-05-14T04:48:24.011Z,6.50
2018-05-14T04:50:52.981Z,5.90
2018-05-14T04:53:21.959Z,6.30
2018-05-14T04:55:50.988Z,6.53
2018-05-14T04:58:19.930Z,6.07
2018-05-14T05:00:48.880Z,6.07
2018-05-14T05:03:17.835Z,6.20
2018-05-14T05:05:46.797Z,6.20
2018-05-14T05:08:15.835Z,5.33
2018-05-14T05:10:44.816Z,5.70
2018-05-14T05:13:13.777Z,5.30
2018-05-14T05:15:42.736Z,5.47
2018-05-14T05:18:11.700Z,5.53
2018-05-14T05:20:40.756Z,5.80
2018-05-14T05:23:09.706Z,5.23
2018-05-14T05:25:38.683Z,5.40
2018-05-14T05:28:07.657Z,5.27
2018-05-14T05:30:36.624Z,5.70
2018-05-14T05:33:05.638Z,5.03
2018-05-14T05:35:34.592Z,4.97
2018-05-14T05:38:03.604Z,5.00
2018-05-14T05:40:32.563Z,5.37
2018-05-14T05:43:01.543Z,5.10
2018-05-14T05:45:30.585Z,5.37
2018-05-14T05:47:59.551Z,5.40
2018-05-14T05:50:28.506Z,4.80
2018-05-14T05:52:57.466Z,4.93
2018-05-14T05:55:26.423Z,5.00
2018-05-14T05:57:55.457Z,5.10
2018-05-14T06:00:24.427Z,4.90
2018-05-14T06:02:53.382Z,4.80
2018-05-14T06:05:22.364Z,5.20
2018-05-14T06:07:51.328Z,4.70
2018-05-14T06:10:20.313Z,5.43
2018-05-14T06:12:49.261Z,5.40
2018-05-14T06:15:18.734Z,5.30
2018-05-14T06:17:47.716Z,6.03
2018-05-14T06:20:16.773Z,5.20
2018-05-14T06:22:45.751Z,5.23
2018-05-14T06:25:14.769Z,5.67
2018-05-14T06:27:43.709Z,5.77
2018-05-14T06:30:12.683Z,5.10
2018-05-14T06:32:41.623Z,5.90
2018-05-14T06:35:10.652Z,5.93
2018-05-14T06:37:39.589Z,5.20
2018-05-14T06:40:08.541Z,5.27
2018-05-14T06:42:37.513Z,5.23
2018-05-14T06:45:06.460Z,5.20
2018-05-14T06:47:35.730Z,5.50
2018-05-14T06:50:04.679Z,5.63
2018-05-14T06:52:33.680Z,5.00
2018-05-14T06:55:02.628Z,5.53
2018-05-14T06:57:32.280Z,5.70
2018-05-14T07:00:01.274Z,5.30
2018-05-14T07:02:30.256Z,4.50
2018-05-14T07:04:59.915Z,4.30
2018-05-14T07:07:28.938Z,4.80
2018-05-14T07:09:57.924Z,4.50
2018-05-14T07:12:26.866Z,4.50
2018-05-14T07:14:55.805Z,4.70
2018-05-14T07:17:24.752Z,4.67
2018-05-14T07:19:53.706Z,4.00
2018-05-14T07:22:22.707Z,4.23
2018-05-14T07:24:51.661Z,3.93
2018-05-14T07:27:20.641Z,4.03
2018-05-14T07:29:49.591Z,4.47
2018-05-14T07:32:18.565Z,4.47
2018-05-14T07:34:47.508Z,4.30
2018-05-14T07:37:16.451Z,4.50
2018-05-14T07:39:45.426Z,4.37
2018-05-14T07:42:14.375Z,3.90
2018-05-14T07:44:43.321Z,3.97
2018-05-14T07:47:12.269Z,4.10
2018-05-14T07:49:41.264Z,4.13
2018-05-14T07:52:10.209Z,4.23
2018-05-14T07:54:39.162Z,4.70
2018-05-14T07:57:08.187Z,4.73
2018-05-14T07:59:37.939Z,4.63
2018-05-14T08:02:06.939Z,4.60
2018-05-14T08:04:36.248Z,4.37
2018-05-14T08:07:05.201Z,4.47
2018-05-14T08:09:34.474Z,4.60
2018-05-14T08:12:03.466Z,5.00
2018-05-14T08:14:32.441Z,4.53
2018-05-14T08:17:01.370Z,4.50
2018-05-14T08:19:30.356Z,4.50
2018-05-14T08:21:59.377Z,4.30
2018-05-14T08:24:28.385Z,4.50
2018-05-14T08:26:57.370Z,5.10
2018-05-14T08:29:26.306Z,4.53
2018-05-14T08:31:55.256Z,6.23
2018-05-14T08:34:24.989Z,5.63
2018-05-14T08:36:54.292Z,4.90
2018-05-14T08:39:23.316Z,7.33
2018-05-14T08:41:52.263Z,4.67
2018-05-14T08:44:21.279Z,6.10
2018-05-14T08:46:50.220Z,5.20
2018-05-14T08:49:19.151Z,4.77
2018-05-14T08:51:48.096Z,5.07
2018-05-14T08:54:17.091Z,6.00
2018-05-14T08:56:46.055Z,4.97
2018-05-14T08:59:15.007Z,5.07
2018-05-14T09:01:44.064Z,5.17
2018-05-14T09:04:13.783Z,5.23
2018-05-14T09:06:42.730Z,5.23
2018-05-14T09:09:11.919Z,4.43
2018-05-14T09:11:40.882Z,4.63
2018-05-14T09:14:09.927Z,4.63
2018-05-14T09:16:38.875Z,5.10
2018-05-14T09:19:07.835Z,4.43
2018-05-14T09:21:36.820Z,5.00
2018-05-14T09:24:05.869Z,4.77
2018-05-14T09:26:34.962Z,4.67
2018-05-14T09:29:04.078Z,4.30
2018-05-14T09:31:33.037Z,4.50
2018-05-14T09:34:02.687Z,4.20
2018-05-14T09:36:31.668Z,4.37
2018-05-14T09:39:00.613Z,4.30
2018-05-14T09:41:29.550Z,4.57
2018-05-14T09:43:58.506Z,4.17
2018-05-14T09:46:27.470Z,4.27
2018-05-14T09:48:57.542Z,4.00
2018-05-14T09:51:26.490Z,4.20
2018-05-14T09:53:55.439Z,3.80
2018-05-14T09:56:24.422Z,3.53
2018-05-14T09:58:53.465Z,4.03
2018-05-14T10:01:22.410Z,3.37
2018-05-14T10:03:51.353Z,3.57
2018-05-14T10:06:20.316Z,3.83
2018-05-14T10:08:49.366Z,3.83
2018-05-14T10:11:18.314Z,3.57
2018-05-14T10:13:47.269Z,4.23
2018-05-14T10:16:16.564Z,4.20
2018-05-14T10:18:45.551Z,3.63
2018-05-14T10:21:14.518Z,3.67
2018-05-14T10:23:43.540Z,4.43
2018-05-14T10:26:12.529Z,3.77
2018-05-14T10:28:41.591Z,4.13
2018-05-14T10:31:10.526Z,4.37
2018-05-14T10:33:39.523Z,3.73
2018-05-14T10:36:09.363Z,4.07
2018-05-14T10:38:38.304Z,4.17
2018-05-14T10:41:07.252Z,4.30
2018-05-14T10:43:36.201Z,3.67
2018-05-14T10:46:05.250Z,4.23
2018-05-14T10:48:34.587Z,3.67
2018-05-14T10:51:03.626Z,3.87
2018-05-14T10:53:32.592Z,4.07
2018-05-14T10:56:01.530Z,4.30
2018-05-14T10:58:31.058Z,4.07
2018-05-14T11:00:59.996Z,4.00
2018-05-14T11:03:28.946Z,3.47
2018-05-14T11:05:57.880Z,3.37
2018-05-14T11:08:26.822Z,3.27
2018-05-14T11:10:56.231Z,3.50
2018-05-14T11:13:25.894Z,3.67
2018-05-14T11:15:54.839Z,4.00
2018-05-14T11:18:24.293Z,3.20
2018-05-14T11:20:53.233Z,3.90
2018-05-14T11:23:22.710Z,3.50
2018-05-14T11:25:51.660Z,3.40
2018-05-14T11:28:20.635Z,3.30
2018-05-14T11:30:50.365Z,3.40
2018-05-14T11:33:20.116Z,4.03
2018-05-14T11:35:49.135Z,3.87
2018-05-14T11:38:18.067Z,3.33
2018-05-14T11:40:47.050Z,3.60
2018-05-14T11:43:15.986Z,4.00
2018-05-14T11:45:44.954Z,3.70
2018-05-14T11:48:13.908Z,4.00
2018-05-14T11:50:42.859Z,3.67
2018-05-14T11:53:12.421Z,4.00
2018-05-14T11:55:41.368Z,3.67
2018-05-14T11:58:10.455Z,3.80
2018-05-14T12:00:39.402Z,3.93
2018-05-14T12:03:08.373Z,4.07
2018-05-14T12:05:37.711Z,4.33
2018-05-14T12:08:06.791Z,3.57
2018-05-14T12:10:35.853Z,3.80
2018-05-14T12:13:04.800Z,4.13
2018-05-14T12:15:34.056Z,4.10
2018-05-14T12:18:03.029Z,3.93
2018-05-14T12:20:32.468Z,3.60
2018-05-14T12:23:01.446Z,3.60
2018-05-14T12:25:30.389Z,3.70
2018-05-14T12:27:59.433Z,3.60
2018-05-14T12:30:28.542Z,3.20
2018-05-14T12:32:57.506Z,3.60
2018-05-14T12:35:26.492Z,3.63
2018-05-14T12:37:56.247Z,4.00
2018-05-14T12:40:25.859Z,3.67
2018-05-14T12:42:55.292Z,4.03
2018-05-14T12:45:24.235Z,3.77
2018-05-14T12:47:53.267Z,3.70
2018-05-14T12:50:22.629Z,4.20
2018-05-14T12:52:51.575Z,3.90
2018-05-14T12:55:20.533Z,3.80
2018-05-14T12:57:50.022Z,4.17
2018-05-14T13:00:19.016Z,3.60
2018-05-14T13:02:47.971Z,3.53
2018-05-14T13:05:16.921Z,3.50
2018-05-14T13:07:45.881Z,3.80
2018-05-14T13:10:15.336Z,4.13
2018-05-14T13:12:44.652Z,4.10
2018-05-14T13:15:13.713Z,4.23
2018-05-14T13:17:42.674Z,4.13
2018-05-14T13:20:12.389Z,3.90
2018-05-14T13:22:41.966Z,3.60
2018-05-14T13:25:10.989Z,4.10
2018-05-14T13:27:39.938Z,3.43
2018-05-14T13:30:08.876Z,3.57
2018-05-14T13:32:37.809Z,3.73
2018-05-14T13:35:06.750Z,4.37
2018-05-14T13:37:35.859Z,3.97
2018-05-14T13:40:04.717Z,3.87
2018-05-14T13:42:33.701Z,4.00
2018-05-14T13:45:02.765Z,3.60
2018-05-14T13:47:31.663Z,5.33
2018-05-14T13:50:00.660Z,3.80
2018-05-14T13:52:29.589Z,4.27
2018-05-14T13:54:58.554Z,4.47
2018-05-14T13:57:28.084Z,4.00
2018-05-14T13:59:56.968Z,3.90
2018-05-14T14:02:26.399Z,3.87
2018-05-14T14:04:55.493Z,5.23
2018-05-14T14:07:24.454Z,3.67
2018-05-14T14:09:53.507Z,4.33
2018-05-14T14:12:22.443Z,3.70
2018-05-14T14:14:51.425Z,3.87
2018-05-14T14:17:20.382Z,4.40
2018-05-14T14:19:49.311Z,4.10
2018-05-14T14:22:18.245Z,4.50
2018-05-14T14:24:47.187Z,4.47
2018-05-14T14:27:16.178Z,3.73
2018-05-14T14:29:45.126Z,4.60
2018-05-14T14:32:14.774Z,4.43
2018-05-14T14:34:43.726Z,4.00
2018-05-14T14:37:13.385Z,4.97
2018-05-14T14:39:42.282Z,5.57
2018-05-14T14:42:11.251Z,5.30
2018-05-14T14:44:40.837Z,5.50
2018-05-14T14:47:09.841Z,4.97
2018-05-14T14:49:39.318Z,6.20
2018-05-14T14:52:08.259Z,4.17
2018-05-14T14:54:37.753Z,5.40
2018-05-14T14:57:06.762Z,4.23
2018-05-14T14:59:35.715Z,4.30
2018-05-14T15:02:04.749Z,4.50
2018-05-14T15:04:33.755Z,4.27
2018-05-14T15:07:02.798Z,4.50
2018-05-14T15:09:31.754Z,4.10
2018-05-14T15:12:01.469Z,4.43
2018-05-14T15:14:30.438Z,4.80
2018-05-14T15:16:59.514Z,5.03
2018-05-14T15:19:28.558Z,4.67
2018-05-14T15:21:58.342Z,3.90
2018-05-14T15:24:27.291Z,3.87
2018-05-14T15:26:56.265Z,3.67
2018-05-14T15:42:32.245Z,3.30
2018-05-14T15:45:01.206Z,4.50
2018-05-14T15:47:30.202Z,4.10
2018-05-14T15:49:59.983Z,4.50
2018-05-14T15:52:28.948Z,3.80
2018-05-14T15:54:57.918Z,3.87
2018-05-14T15:57:26.911Z,3.53
2018-05-14T15:59:55.930Z,3.90
2018-05-14T16:02:24.875Z,3.23
2018-05-14T16:04:53.902Z,3.63
2018-05-14T16:07:22.840Z,3.63
2018-05-14T16:09:51.894Z,3.83
2018-05-14T16:12:20.881Z,3.60
2018-05-14T16:14:49.821Z,3.10
2018-05-14T16:17:18.894Z,3.77
2018-05-14T16:19:47.850Z,4.00
2018-05-14T16:22:16.787Z,3.73
2018-05-14T16:24:46.569Z,3.47
2018-05-14T16:27:16.117Z,4.37
2018-05-14T16:29:45.143Z,3.80
2018-05-14T16:32:14.109Z,3.80
2018-05-14T16:34:43.168Z,3.73
2018-05-14T16:37:12.158Z,3.47
2018-05-14T16:39:41.105Z,3.27
2018-05-14T16:42:10.091Z,3.93
2018-05-14T16:44:39.057Z,3.83
2018-05-14T16:47:07.993Z,4.10
2018-05-14T16:49:36.967Z,3.33
2018-05-14T16:52:05.906Z,4.40
2018-05-14T16:54:34.877Z,4.37
2018-05-14T16:57:03.842Z,4.23
2018-05-14T16:59:32.861Z,4.23
2018-05-14T17:02:01.815Z,4.37
2018-05-14T17:04:30.773Z,4.00
2018-05-14T17:06:59.778Z,3.90
2018-05-14T17:09:28.749Z,3.40
2018-05-14T17:11:57.695Z,4.20
2018-05-14T17:14:26.666Z,4.10
2018-05-14T17:16:55.666Z,4.20
2018-05-14T17:19:24.666Z,4.23
2018-05-14T17:21:53.621Z,4.40
2018-05-14T17:24:22.558Z,3.83
2018-05-14T17:26:51.510Z,4.60
2018-05-14T17:29:20.457Z,4.60
2018-05-14T17:31:49.447Z,4.43
2018-05-14T17:34:18.429Z,4.70
2018-05-14T17:36:47.389Z,4.37
2018-05-14T17:39:16.415Z,4.40
2018-05-14T17:41:45.370Z,4.87
2018-05-14T17:44:14.349Z,4.37
2018-05-14T17:46:43.285Z,4.50
2018-05-14T17:49:12.227Z,4.03
2018-05-14T17:51:41.182Z,4.73
2018-05-14T17:54:10.120Z,4.00
2018-05-14T17:56:39.115Z,4.67
2018-05-14T17:59:08.056Z,4.30
2018-05-14T18:01:36.988Z,4.40
2018-05-14T18:04:05.944Z,4.40
2018-05-14T18:06:34.889Z,4.63
2018-05-14T18:09:03.887Z,5.03
2018-05-14T18:11:32.906Z,4.93
2018-05-14T18:14:02.005Z,4.80
2018-05-14T18:16:30.969Z,5.23
2018-05-14T18:18:59.923Z,5.60
2018-05-14T18:21:34.714Z,5.70
2018-05-14T18:24:03.671Z,5.50
2018-05-14T18:26:38.421Z,5.17
2018-05-14T18:29:08.160Z,5.33
2018-05-14T18:31:42.984Z,6.00
2018-05-14T18:34:21.881Z,10.77
2018-05-14T18:36:50.825Z,8.77
2018-05-14T18:39:19.807Z,17.27
2018-05-14T18:41:48.792Z,17.33
2018-05-14T18:44:17.742Z,13.10
2018-05-14T18:46:46.702Z,12.30
2018-05-14T18:49:15.649Z,10.20
2018-05-14T18:51:44.589Z,8.70
2018-05-14T18:54:13.615Z,7.27
2018-05-14T18:56:42.557Z,7.43
2018-05-14T18:59:11.515Z,7.33
2018-05-14T19:01:40.471Z,6.50
2018-05-14T19:04:09.426Z,6.67
2018-05-14T19:06:38.426Z,6.47
2018-05-14T19:09:07.375Z,6.70
2018-05-14T19:11:42.251Z,6.07
2018-05-14T19:14:11.195Z,6.77
2018-05-14T19:16:45.981Z,6.40
2018-05-14T19:19:14.932Z,5.73
2018-05-14T19:21:43.883Z,6.23
2018-05-14T19:24:12.821Z,6.33
2018-05-14T19:26:41.781Z,5.87
2018-05-14T19:29:17.155Z,6.43
2018-05-14T19:31:46.049Z,6.23
2018-05-14T19:34:20.770Z,6.33
2018-05-14T19:36:49.730Z,6.27
2018-05-14T19:39:24.341Z,6.27
2018-05-14T19:41:53.295Z,6.23
2018-05-14T19:44:22.281Z,6.20
2018-05-14T19:46:51.230Z,6.03
2018-05-14T19:49:20.216Z,5.63
2018-05-14T19:51:49.181Z,5.77
2018-05-14T19:54:18.121Z,5.80
2018-05-14T19:56:47.122Z,6.70
2018-05-14T19:59:16.079Z,6.33
2018-05-14T20:01:45.034Z,6.70
2018-05-14T20:04:13.983Z,6.63
2018-05-14T20:06:43.012Z,6.53
2018-05-14T20:09:11.958Z,6.63
2018-05-14T20:11:40.929Z,6.17
2018-05-14T20:14:09.866Z,6.23
2018-05-14T20:16:38.809Z,6.73
2018-05-14T20:19:07.764Z,6.17
2018-05-14T20:21:36.750Z,6.97
2018-05-14T20:24:05.707Z,7.43
2018-05-14T20:26:34.652Z,7.83
2018-05-14T20:29:03.691Z,8.80
2018-05-14T20:31:32.605Z,8.73
2018-05-14T20:34:01.614Z,8.63
2018-05-14T20:36:30.749Z,8.50
2018-05-14T20:38:59.732Z,8.00
2018-05-14T20:41:28.700Z,7.80
2018-05-14T20:43:57.690Z,7.47
2018-05-14T20:46:26.696Z,7.43
2018-05-14T20:48:55.689Z,7.77
2018-05-14T20:51:24.659Z,7.90
2018-05-14T20:53:53.629Z,7.43
2018-05-14T20:56:22.609Z,7.80
2018-05-14T20:58:51.601Z,7.67
2018-05-14T21:01:20.582Z,7.00
2018-05-14T21:03:49.573Z,7.87
2018-05-14T21:06:18.535Z,6.67
2018-05-14T21:08:47.495Z,7.20
2018-05-14T21:11:17.334Z,7.03
2018-05-14T21:13:46.294Z,7.40
2018-05-14T21:16:15.241Z,6.77
2018-05-14T21:18:44.221Z,7.03
2018-05-14T21:21:13.679Z,6.93
2018-05-14T21:23:42.693Z,7.47
2018-05-14T21:26:11.646Z,7.37
2018-05-14T21:28:40.604Z,6.83
2018-05-14T21:31:09.657Z,6.77
2018-05-14T21:33:38.586Z,7.10
2018-05-14T21:36:07.581Z,6.97
2018-05-14T21:38:36.561Z,7.40
2018-05-14T21:41:05.502Z,6.77
2018-05-14T21:43:34.491Z,6.70
2018-05-14T21:46:03.570Z,7.07
2018-05-14T21:48:32.590Z,6.50
2018-05-14T21:51:01.551Z,7.13
2018-05-14T21:53:30.522Z,7.03
2018-05-14T21:55:59.482Z,6.27
2018-05-14T21:58:28.448Z,7.03
2018-05-14T22:00:57.503Z,6.10
2018-05-14T22:03:27.306Z,6.53
2018-05-14T22:05:58.158Z,7.03
2018-05-14T22:08:27.121Z,6.83
2018-05-14T22:10:56.091Z,6.80
2018-05-14T22:13:25.075Z,7.90
2018-05-14T22:15:54.060Z,6.50
2018-05-14T22:18:23.146Z,7.00
2018-05-14T22:20:52.074Z,6.80
2018-05-14T22:23:21.057Z,7.50
2018-05-14T22:25:50.021Z,7.60
2018-05-14T22:28:18.994Z,6.77
2018-05-14T22:30:47.996Z,7.30
2018-05-14T22:33:16.986Z,7.70
2018-05-14T22:35:45.952Z,7.90
2018-05-14T22:38:14.947Z,8.10
2018-05-14T22:40:43.908Z,7.73
2018-05-14T22:43:12.914Z,7.00
2018-05-14T22:45:41.927Z,7.67
2018-05-14T22:48:10.900Z,7.43
2018-05-14T22:50:39.877Z,7.23
2018-05-14T22:53:08.834Z,7.73
2018-05-14T22:55:37.784Z,8.13
2018-05-14T22:58:06.815Z,7.03
2018-05-14T23:00:35.826Z,7.47
2018-05-14T23:03:04.782Z,7.07
2018-05-14T23:05:33.745Z,7.17
2018-05-14T23:08:02.705Z,7.30
2018-05-14T23:10:31.972Z,8.27
2018-05-14T23:13:00.948Z,8.67
2018-05-14T23:15:29.919Z,7.83
2018-05-14T23:17:58.892Z,8.10
2018-05-14T23:20:27.870Z,7.50
2018-05-14T23:22:56.894Z,7.30
2018-05-14T23:25:25.859Z,8.27
2018-05-14T23:27:54.976Z,8.50
2018-05-14T23:30:23.935Z,9.07
2018-05-14T23:32:52.898Z,8.73
2018-05-14T23:35:21.936Z,8.43
2018-05-14T23:37:50.911Z,8.77
2018-05-14T23:40:19.953Z,7.60
2018-05-14T23:42:48.937Z,7.97
2018-05-14T23:45:17.917Z,8.50
2018-05-14T23:47:46.943Z,8.57
2018-05-14T23:50:15.936Z,7.97
2018-05-14T23:52:44.899Z,7.70
2018-05-14T23:55:13.865Z,8.33
2018-05-14T23:57:42.842Z,8.60
